Time;durP1;ratioP1;P1;durP2;ratioP2;P2;SDS_P1;SDS_P2;PMS_P1;PMS_P2;Temp;Humidity;BMP_temperature;BMP_pressure;BME280_temperature;BME280_humidity;BME280_pressure;Samples;Min_cycle;Max_cycle;Signal;HPM_P1;HPM_P2
2023/09/07 00:01:36;;;;;;;5.10;3.47;;;;;;;20.30;55.29;99059.59;6972316;28;20336;-85
2023/09/07 00:04:58;;;;;;;5.47;3.30;;;;;;;20.32;54.71;99052.78;6972514;28;20257;-84
2023/09/07 00:08:20;;;;;;;4.77;3.37;;;;;;;20.29;54.91;99030.56;6972681;28;20227;-84
2023/09/07 00:11:41;;;;;;;4.73;3.70;;;;;;;20.37;54.72;99055.56;7000331;28;20244;-85
2023/09/07 00:15:06;;;;;;;4.13;3.40;;;;;;;20.37;55.18;99057.47;6999581;28;20301;-84
2023/09/07 00:18:33;;;;;;;3.80;3.50;;;;;;;20.22;55.68;99062.84;6997433;28;20198;-85
2023/09/07 00:21:54;;;;;;;8.50;3.90;;;;;;;20.18;55.25;99029.69;7000041;28;20331;-85
2023/09/07 00:25:16;;;;;;;3.87;3.57;;;;;;;20.24;55.39;99039.59;6999479;28;20286;-83
2023/09/07 00:28:38;;;;;;;5.07;3.63;;;;;;;20.19;55.34;99044.19;6998841;28;20350;-84
2023/09/07 00:32:00;;;;;;;7.53;3.40;;;;;;;20.38;54.61;99054.47;6999293;28;20335;-84
2023/09/07 00:35:22;;;;;;;4.07;3.20;;;;;;;20.29;54.49;99055.22;6998567;28;20308;-84
2023/09/07 00:38:43;;;;;;;5.33;3.53;;;;;;;20.21;54.80;99059.25;6998844;28;20288;-84
2023/09/07 00:42:05;;;;;;;4.30;3.23;;;;;;;20.25;54.91;99052.19;6999774;28;20335;-84
2023/09/07 00:45:27;;;;;;;3.97;3.57;;;;;;;20.13;55.12;99062.47;6998707;28;20347;-85
2023/09/07 00:48:50;;;;;;;4.10;3.40;;;;;;;19.94;54.93;99017.34;6999179;28;20289;-84
2023/09/07 00:52:12;;;;;;;3.93;3.60;;;;;;;19.74;54.62;98984.34;6999420;28;20352;-84
2023/09/07 00:55:34;;;;;;;3.90;3.50;;;;;;;20.17;54.92;99049.91;7000161;28;20255;-84
2023/09/07 00:59:05;;;;;;;4.63;3.67;;;;;;;20.18;54.70;99051.59;7049364;27;20561;-83
2023/09/07 01:02:27;;;;;;;4.30;3.40;;;;;;;20.12;54.76;99062.75;7049816;28;20353;-83
2023/09/07 01:05:52;;;;;;;4.27;3.27;;;;;;;19.89;55.17;99049.34;7037299;28;20220;-84
2023/09/07 01:09:22;;;;;;;4.67;3.63;;;;;;;20.20;54.86;99054.88;7026471;28;20595;-84
2023/09/07 01:12:44;;;;;;;5.73;3.80;;;;;;;19.91;55.81;99048.00;7021770;28;20207;-84
2023/09/07 01:16:07;;;;;;;4.90;3.67;;;;;;;19.95;55.11;99043.66;7020596;28;20271;-84
2023/09/07 01:19:30;;;;;;;4.13;3.67;;;;;;;19.81;55.46;99049.81;7020571;28;20250;-84
2023/09/07 01:22:56;;;;;;;6.93;3.80;;;;;;;19.66;55.58;99016.81;7021459;28;20288;-84
2023/09/07 01:26:18;;;;;;;5.03;3.90;;;;;;;19.83;55.50;99053.94;7020419;28;20220;-84
2023/09/07 01:29:39;;;;;;;4.60;3.70;;;;;;;19.94;55.49;99054.88;7020741;28;20654;-84
2023/09/07 01:33:02;;;;;;;4.10;3.70;;;;;;;19.48;55.24;99050.00;7020745;28;20288;-84
2023/09/07 01:36:24;;;;;;;4.40;3.97;;;;;;;19.73;56.46;99059.31;7020256;28;20717;-84
2023/09/07 01:39:48;;;;;;;4.30;3.67;;;;;;;19.68;56.28;99062.00;7021157;28;20296;-85
2023/09/07 01:43:10;;;;;;;4.77;3.60;;;;;;;19.75;56.29;99056.31;7020715;28;20208;-85
2023/09/07 01:46:31;;;;;;;4.10;3.80;;;;;;;19.56;56.02;99036.69;7020627;28;20266;-84
2023/09/07 01:49:53;;;;;;;6.00;3.90;;;;;;;19.26;55.91;98978.94;7021166;28;20205;-84
2023/09/07 01:53:14;;;;;;;5.63;3.60;;;;;;;19.59;56.31;99059.97;6993550;28;20739;-84
2023/09/07 01:56:39;;;;;;;4.33;3.60;;;;;;;19.62;56.04;99056.69;6991789;28;20271;-84
2023/09/07 02:00:00;;;;;;;4.30;3.90;;;;;;;19.23;56.22;99030.56;6992997;28;20206;-84
2023/09/07 02:03:22;;;;;;;10.90;4.00;;;;;;;19.63;55.95;99055.66;7011428;28;20677;-84
2023/09/07 02:06:43;;;;;;;6.47;3.93;;;;;;;19.60;55.95;99047.94;7020541;28;20259;-83
2023/09/07 02:10:05;;;;;;;4.60;3.60;;;;;;;19.04;56.60;99051.88;7005048;28;20312;-83
2023/09/07 02:13:28;;;;;;;6.13;4.23;;;;;;;19.27;56.94;99050.84;7001915;28;20198;-83
2023/09/07 02:16:50;;;;;;;4.83;3.93;;;;;;;19.06;57.34;99044.25;7001148;28;20324;-83
2023/09/07 02:20:12;;;;;;;5.60;4.23;;;;;;;19.10;57.68;99053.59;7001397;28;20209;-83
2023/09/07 02:23:35;;;;;;;4.03;3.73;;;;;;;19.11;57.58;99059.91;7001561;28;20205;-83
2023/09/07 02:26:56;;;;;;;4.90;4.13;;;;;;;19.23;57.15;99057.91;6999912;28;20577;-84
2023/09/07 02:30:20;;;;;;;5.33;4.30;;;;;;;18.27;57.87;98935.50;7000804;28;20201;-84
2023/09/07 02:33:44;;;;;;;6.07;4.40;;;;;;;19.04;57.68;99060.06;6994500;28;20205;-84
2023/09/07 02:37:06;;;;;;;4.37;3.80;;;;;;;19.30;57.60;99053.06;7000065;28;20248;-84
2023/09/07 02:40:27;;;;;;;4.60;4.17;;;;;;;19.40;57.08;99061.38;7000906;28;20245;-84
2023/09/07 02:43:49;;;;;;;5.13;3.93;;;;;;;19.30;57.40;99053.91;7000610;28;20297;-84
2023/09/07 02:47:12;;;;;;;5.13;4.23;;;;;;;19.32;56.90;99040.78;6999668;28;20244;-84
2023/09/07 02:50:34;;;;;;;4.03;3.63;;;;;;;19.01;55.93;99018.75;7002645;28;20292;-84
2023/09/07 02:53:57;;;;;;;4.47;4.07;;;;;;;19.31;56.73;99057.44;7004871;28;20202;-84
2023/09/07 02:57:18;;;;;;;4.33;3.93;;;;;;;19.28;56.60;99052.50;6997972;28;20713;-82
2023/09/07 03:00:44;;;;;;;5.43;4.20;;;;;;;19.10;57.09;99052.78;7018259;28;20270;-82
2023/09/07 03:04:07;;;;;;;5.33;4.20;;;;;;;19.28;57.12;99050.56;7006559;28;20193;-82
2023/09/07 03:07:34;;;;;;;5.43;4.57;;;;;;;18.92;58.08;99047.63;7019791;28;20235;-84
2023/09/07 03:10:55;;;;;;;5.57;4.63;;;;;;;18.88;58.37;99043.72;7022568;28;20228;-83
2023/09/07 03:14:17;;;;;;;5.60;4.40;;;;;;;19.00;58.18;99033.50;7016444;28;20249;-83
2023/09/07 03:17:38;;;;;;;7.43;4.37;;;;;;;19.11;57.62;99049.78;7014742;28;20257;-83
2023/09/07 03:21:02;;;;;;;4.77;4.30;;;;;;;19.20;57.30;99034.59;7007201;28;20343;-82
2023/09/07 03:24:24;;;;;;;5.50;4.10;;;;;;;19.22;57.40;99035.19;7008493;28;20213;-83
2023/09/07 03:27:45;;;;;;;5.57;4.47;;;;;;;18.86;58.02;99029.50;7014405;28;20205;-83
2023/09/07 03:31:07;;;;;;;5.03;4.53;;;;;;;19.04;57.41;99031.94;6980557;28;20213;-83
2023/09/07 03:34:29;;;;;;;4.90;4.50;;;;;;;18.82;57.62;99042.00;6974932;28;20384;-83
2023/09/07 03:37:51;;;;;;;6.80;4.20;;;;;;;18.80;57.81;99011.38;6999818;28;20721;-82
2023/09/07 03:41:13;;;;;;;6.47;4.70;;;;;;;19.03;57.65;99033.81;7002804;28;20297;-83
2023/09/07 03:44:35;;;;;;;6.23;4.97;;;;;;;18.42;58.96;99035.94;7002263;28;20331;-83
2023/09/07 03:47:57;;;;;;;5.87;4.13;;;;;;;18.68;58.54;99033.34;7000316;28;20242;-83
2023/09/07 03:51:18;;;;;;;4.90;4.40;;;;;;;18.84;58.38;99042.56;7001813;28;20788;-82
2023/09/07 03:54:41;;;;;;;6.07;4.77;;;;;;;18.74;57.86;99042.44;7014835;28;20302;-82
2023/09/07 03:58:03;;;;;;;6.07;4.70;;;;;;;18.61;58.47;99043.63;7028998;28;20566;-82
2023/09/07 04:01:25;;;;;;;5.30;4.83;;;;;;;18.42;59.01;99028.59;7030119;28;20692;-82
2023/09/07 04:04:50;;;;;;;6.53;4.93;;;;;;;18.29;58.95;99019.88;7027513;28;20232;-82
2023/09/07 04:08:11;;;;;;;5.97;5.00;;;;;;;18.38;59.14;99032.03;7028534;28;20233;-83
2023/09/07 04:11:34;;;;;;;5.87;4.90;;;;;;;18.70;58.44;99030.34;7029043;28;20301;-84
2023/09/07 04:14:56;;;;;;;6.43;5.03;;;;;;;18.66;57.67;99026.47;7020288;28;20771;-82
2023/09/07 04:18:17;;;;;;;5.23;4.57;;;;;;;18.46;57.76;98998.88;6999605;28;20319;-82
2023/09/07 04:21:39;;;;;;;5.17;4.73;;;;;;;18.81;56.89;99029.44;6987662;28;20294;-82
2023/09/07 04:25:00;;;;;;;4.50;4.10;;;;;;;18.72;57.54;99015.38;6994605;28;20237;-82
2023/09/07 04:28:23;;;;;;;4.83;4.30;;;;;;;18.79;57.50;99035.13;6996400;28;20345;-81
2023/09/07 04:31:45;;;;;;;7.40;4.67;;;;;;;18.67;57.59;99036.31;6993950;28;20355;-80
2023/09/07 04:35:07;;;;;;;5.67;5.17;;;;;;;18.68;57.83;99036.06;7000041;28;20231;-81
2023/09/07 04:38:29;;;;;;;6.27;5.77;;;;;;;18.52;58.34;99036.09;6998960;28;20229;-81
2023/09/07 04:41:52;;;;;;;9.70;5.40;;;;;;;18.51;58.09;99043.44;6998274;28;20624;-81
2023/09/07 04:45:17;;;;;;;5.20;4.40;;;;;;;18.43;58.41;99045.78;6998330;28;20259;-81
2023/09/07 04:48:38;;;;;;;5.37;4.83;;;;;;;18.08;58.25;98949.66;6997816;28;20570;-81
2023/09/07 04:52:00;;;;;;;6.27;5.30;;;;;;;18.46;58.38;99001.59;6998065;28;20292;-81
2023/09/07 04:55:21;;;;;;;6.27;5.53;;;;;;;18.53;58.47;99040.47;6990454;28;20229;-83
2023/09/07 04:58:43;;;;;;;12.63;6.10;;;;;;;18.80;58.29;99044.97;6996044;28;20370;-82
2023/09/07 05:02:07;;;;;;;6.67;5.33;;;;;;;18.71;58.62;99032.00;6997901;28;20348;-82
2023/09/07 05:05:28;;;;;;;5.80;4.73;;;;;;;18.60;58.66;99046.59;6992043;28;20267;-81
2023/09/07 05:08:50;;;;;;;6.67;5.10;;;;;;;18.62;58.91;99052.63;6997834;28;20289;-81
2023/09/07 05:12:11;;;;;;;8.97;5.67;;;;;;;18.52;59.09;99058.75;6998054;28;20437;-81
2023/09/07 05:15:33;;;;;;;5.60;5.00;;;;;;;18.75;58.47;99049.56;6997093;28;20228;-81
2023/09/07 05:18:56;;;;;;;5.47;5.03;;;;;;;18.95;57.80;99053.41;6996714;28;20327;-81
2023/09/07 05:22:17;;;;;;;6.70;6.00;;;;;;;18.33;57.42;98975.47;6997773;28;20286;-82
2023/09/07 05:25:44;;;;;;;5.87;5.17;;;;;;;18.94;57.92;99057.22;6997115;28;20230;-85
2023/09/07 05:29:05;;;;;;;6.20;5.60;;;;;;;18.90;57.93;99057.94;6998117;28;20190;-82
2023/09/07 05:32:27;;;;;;;5.40;4.90;;;;;;;19.17;57.75;99075.28;6999937;28;20712;-82
2023/09/07 05:35:49;;;;;;;7.00;5.20;;;;;;;18.97;57.67;99080.44;7000103;28;20308;-83
2023/09/07 05:39:11;;;;;;;7.20;5.40;;;;;;;18.97;57.81;99080.44;6999102;28;20363;-84
2023/09/07 05:42:32;;;;;;;6.60;6.00;;;;;;;18.82;58.12;99083.00;6997410;28;20864;-82
2023/09/07 05:45:54;;;;;;;8.60;7.63;;;;;;;18.93;58.15;99082.06;7002643;28;20257;-82
2023/09/07 05:49:15;;;;;;;6.77;5.37;;;;;;;19.23;58.11;99074.31;6997692;28;20233;-81
2023/09/07 05:52:38;;;;;;;4.93;4.53;;;;;;;19.61;56.11;99085.16;7002003;28;20354;-81
2023/09/07 05:56:00;;;;;;;8.30;5.13;;;;;;;19.81;56.43;99078.00;7000519;28;20419;-80
2023/09/07 05:59:21;;;;;;;7.40;5.20;;;;;;;20.29;54.70;99074.38;7001180;28;20339;-80
2023/09/07 06:02:43;;;;;;;5.40;4.97;;;;;;;19.79;55.96;99061.00;7000500;28;20625;-81
2023/09/07 06:06:05;;;;;;;5.63;5.10;;;;;;;20.06;57.24;99072.81;7000982;28;20815;-80
2023/09/07 06:09:28;;;;;;;6.23;4.83;;;;;;;20.46;55.55;99062.19;7000119;28;20198;-81
2023/09/07 06:12:50;;;;;;;6.50;4.93;;;;;;;20.26;55.57;99063.94;6997160;28;20254;-81
2023/09/07 06:16:11;;;;;;;7.73;5.37;;;;;;;20.39;55.38;99060.78;7000591;28;20592;-81
2023/09/07 06:19:34;;;;;;;5.83;4.80;;;;;;;20.14;55.62;99003.06;7000557;28;20316;-80
2023/09/07 06:22:56;;;;;;;6.53;5.50;;;;;;;21.07;55.04;99082.66;6997202;28;20233;-82
2023/09/07 06:26:19;;;;;;;5.27;4.70;;;;;;;21.24;55.01;99071.22;6998606;28;20356;-81
2023/09/07 06:29:41;;;;;;;5.17;4.77;;;;;;;21.44;54.15;99052.13;6996628;28;20222;-80
2023/09/07 06:33:02;;;;;;;6.13;4.87;;;;;;;22.64;51.13;99068.00;7001941;28;20810;-84
2023/09/07 06:36:24;;;;;;;5.63;5.03;;;;;;;22.88;51.38;99066.31;7002960;28;20287;-82
2023/09/07 06:39:46;;;;;;;6.30;4.87;;;;;;;23.21;50.07;99030.78;7002370;28;20294;-82
2023/09/07 06:43:08;;;;;;;6.07;4.73;;;;;;;23.72;48.23;99056.97;6992801;28;20230;-82
2023/09/07 06:46:30;;;;;;;5.30;4.80;;;;;;;23.92;47.63;99058.81;6991244;28;20313;-82
2023/09/07 06:49:51;;;;;;;6.03;4.43;;;;;;;23.85;48.30;99072.03;6990146;28;20253;-82
2023/09/07 06:53:13;;;;;;;4.90;4.30;;;;;;;23.95;48.70;99075.59;6979941;28;20307;-82
2023/09/07 06:56:34;;;;;;;4.83;4.43;;;;;;;24.85;46.67;99063.06;6992356;28;20344;-82
2023/09/07 06:59:57;;;;;;;4.87;4.17;;;;;;;24.69;47.22;99053.25;6989858;28;20227;-82
2023/09/07 07:03:19;;;;;;;4.90;4.27;;;;;;;25.43;46.10;99054.41;6989690;28;20240;-82
2023/09/07 07:06:41;;;;;;;4.47;4.10;;;;;;;25.63;45.19;99065.22;6991108;28;20253;-82
2023/09/07 07:10:03;;;;;;;5.00;4.60;;;;;;;25.97;45.02;99049.31;6994189;28;20258;-82
2023/09/07 07:13:24;;;;;;;4.97;4.47;;;;;;;26.55;44.14;99050.59;6997090;28;20684;-82
2023/09/07 07:16:47;;;;;;;5.90;4.60;;;;;;;26.31;42.37;99055.38;6996991;28;20239;-83
2023/09/07 07:20:10;;;;;;;6.47;4.70;;;;;;;25.23;44.75;99065.66;6993659;28;20214;-82
2023/09/07 07:23:31;;;;;;;4.93;4.53;;;;;;;25.23;44.98;99048.28;6999804;28;20241;-81
2023/09/07 07:26:53;;;;;;;6.83;4.50;;;;;;;25.24;44.93;99061.00;6998508;28;20228;-82
2023/09/07 07:30:14;;;;;;;4.93;4.50;;;;;;;25.84;44.08;99068.53;6994963;28;20661;-83
2023/09/07 07:33:38;;;;;;;4.60;4.20;;;;;;;25.54;43.98;99055.94;6992817;28;20300;-82
2023/09/07 07:36:59;;;;;;;4.90;4.50;;;;;;;25.22;45.38;99065.94;6985454;28;20236;-83
2023/09/07 07:40:21;;;;;;;6.90;4.70;;;;;;;25.96;44.10;99060.66;6971137;28;20709;-82
2023/09/07 07:43:42;;;;;;;5.17;4.67;;;;;;;25.95;43.95;99068.09;6970944;28;20209;-83
2023/09/07 07:47:04;;;;;;;6.10;4.57;;;;;;;25.97;44.18;99057.59;6970825;28;20313;-83
2023/09/07 07:50:27;;;;;;;5.10;4.60;;;;;;;26.14;43.64;99046.81;6971694;28;20221;-83
2023/09/07 07:53:48;;;;;;;5.10;4.70;;;;;;;25.81;44.20;99060.81;6971464;28;20293;-82
2023/09/07 07:57:10;;;;;;;7.30;4.70;;;;;;;26.13;43.38;99055.41;6993419;28;20233;-83
2023/09/07 08:00:32;;;;;;;4.80;4.40;;;;;;;26.37;42.55;99053.38;6988682;28;20717;-82
2023/09/07 08:03:53;;;;;;;5.17;4.67;;;;;;;26.43;42.80;99028.09;6993910;28;20256;-83
2023/09/07 08:07:16;;;;;;;8.33;4.53;;;;;;;26.15;43.79;99051.25;6999179;28;20208;-82
2023/09/07 08:10:38;;;;;;;5.30;4.90;;;;;;;25.59;44.17;99055.88;6988919;28;20263;-82
2023/09/07 08:13:59;;;;;;;4.90;4.40;;;;;;;26.00;44.47;99045.09;6984141;28;20278;-81
2023/09/07 08:17:21;;;;;;;5.53;4.57;;;;;;;26.45;43.35;99049.91;6990722;28;20244;-82
2023/09/07 08:20:42;;;;;;;4.93;4.47;;;;;;;27.33;41.40;99039.47;6982382;28;20391;-82
2023/09/07 08:24:06;;;;;;;6.93;5.37;;;;;;;26.52;43.11;99042.88;6996604;28;20255;-82
2023/09/07 08:27:28;;;;;;;6.37;4.30;;;;;;;26.44;43.22;99038.06;6996230;28;20576;-83
2023/09/07 08:30:50;;;;;;;4.53;4.13;;;;;;;26.57;43.33;99042.84;6980089;28;20286;-83
2023/09/07 08:34:13;;;;;;;6.03;4.60;;;;;;;26.62;43.84;99048.28;6992388;28;20202;-82
2023/09/07 08:37:34;;;;;;;7.87;4.43;;;;;;;27.24;41.55;98981.22;6986908;28;20248;-82
2023/09/07 08:41:03;;;;;;;5.17;4.47;;;;;;;26.65;43.17;99010.88;6995477;28;20268;-83
2023/09/07 08:44:24;;;;;;;10.10;5.40;;;;;;;27.53;41.30;99011.34;6990171;28;20230;-82
2023/09/07 08:47:46;;;;;;;8.70;5.50;;;;;;;27.52;41.80;99035.47;6975567;28;20251;-82
2023/09/07 08:51:08;;;;;;;5.87;5.10;;;;;;;27.72;41.29;99042.53;6985004;28;20214;-82
2023/09/07 08:54:30;;;;;;;8.00;5.53;;;;;;;27.19;42.97;99044.22;6992330;28;20260;-82
2023/09/07 08:57:53;;;;;;;5.30;4.80;;;;;;;26.68;42.25;98968.78;6989291;28;20301;-83
2023/09/07 09:01:15;;;;;;;5.60;4.97;;;;;;;27.48;42.38;99036.41;7005769;28;20222;-83
2023/09/07 09:04:36;;;;;;;6.60;5.37;;;;;;;27.60;41.71;99048.59;6998349;28;20250;-82
2023/09/07 09:08:05;;;;;;;5.13;4.67;;;;;;;27.97;40.71;99048.38;6997342;28;20297;-83
2023/09/07 09:11:27;;;;;;;5.73;4.60;;;;;;;27.76;42.16;99032.44;6997486;28;20267;-82
2023/09/07 09:14:50;;;;;;;6.57;5.03;;;;;;;28.46;40.88;99001.16;6997397;28;20224;-82
2023/09/07 09:18:13;;;;;;;4.83;4.43;;;;;;;28.29;41.44;99042.59;6998787;28;20266;-82
2023/09/07 09:21:35;;;;;;;7.23;5.00;;;;;;;29.20;38.84;99043.88;7014230;28;20298;-83
2023/09/07 09:24:56;;;;;;;7.57;4.83;;;;;;;29.08;38.44;98977.03;7011262;28;20233;-82
2023/09/07 09:28:18;;;;;;;5.40;4.90;;;;;;;28.05;40.35;99033.75;7001125;28;20205;-84
2023/09/07 09:31:41;;;;;;;8.77;5.00;;;;;;;28.42;40.64;99010.44;6999715;28;20316;-84
2023/09/07 09:35:05;;;;;;;6.43;5.00;;;;;;;28.14;40.48;99004.13;7006225;28;20703;-81
2023/09/07 09:38:27;;;;;;;6.37;4.20;;;;;;;29.07;39.07;99030.94;7000224;28;20310;-84
2023/09/07 09:41:48;;;;;;;7.17;5.03;;;;;;;28.71;39.60;99031.03;7001879;28;20202;-84
2023/09/07 09:45:11;;;;;;;5.07;4.67;;;;;;;29.48;38.51;99023.88;7001562;28;20255;-83
2023/09/07 09:48:34;;;;;;;4.83;4.43;;;;;;;29.82;38.52;99023.16;7002439;28;20208;-83
2023/09/07 09:51:58;;;;;;;4.60;4.20;;;;;;;30.55;36.48;99015.50;7002017;28;20346;-83
2023/09/07 09:55:20;;;;;;;4.93;4.43;;;;;;;29.78;37.28;99016.63;7002949;28;20228;-84
2023/09/07 09:58:41;;;;;;;5.73;4.33;;;;;;;29.57;38.01;99018.38;7000900;28;20366;-86
2023/09/07 10:02:04;;;;;;;6.00;4.50;;;;;;;29.95;37.94;99014.69;7013423;28;20654;-85
2023/09/07 10:05:27;;;;;;;4.80;4.40;;;;;;;30.82;36.16;99004.03;7029263;28;20228;-84
2023/09/07 10:08:58;;;;;;;4.73;4.30;;;;;;;30.64;37.71;99008.00;7028977;28;20667;-86
2023/09/07 10:12:28;;;;;;;4.87;4.17;;;;;;;30.84;35.69;99014.84;7029944;28;20293;-83
2023/09/07 10:16:01;;;;;;;4.53;4.13;;;;;;;31.57;35.06;99006.00;7019467;28;20307;-84
2023/09/07 10:19:26;;;;;;;6.20;4.30;;;;;;;31.36;34.87;99011.53;6986978;28;20230;-85
2023/09/07 10:22:49;;;;;;;4.60;4.20;;;;;;;32.35;34.21;99005.97;6973118;28;20739;-82
2023/09/07 10:26:12;;;;;;;4.60;4.20;;;;;;;32.42;33.79;99008.22;6993838;28;20246;-83
2023/09/07 10:29:42;;;;;;;5.67;4.50;;;;;;;30.51;35.49;99008.16;7001179;28;20204;-83
2023/09/07 10:33:04;;;;;;;6.50;4.07;;;;;;;31.47;35.55;98998.03;7001686;28;20194;-81
2023/09/07 10:36:27;;;;;;;6.17;4.00;;;;;;;31.70;34.77;98996.56;6999998;28;20270;-83
2023/09/07 10:39:51;;;;;;;4.50;4.00;;;;;;;31.59;35.32;98990.56;7000359;28;20300;-84
2023/09/07 10:43:12;;;;;;;6.37;4.00;;;;;;;31.17;35.63;98987.97;7000328;28;20696;-85
2023/09/07 10:46:34;;;;;;;6.57;4.37;;;;;;;33.13;32.84;98970.47;6994770;28;20235;-83
2023/09/07 10:49:58;;;;;;;4.30;3.90;;;;;;;32.40;32.77;98974.22;6982599;28;20340;-84
2023/09/07 10:53:27;;;;;;;4.67;3.90;;;;;;;32.26;33.18;98980.09;6998012;28;20265;-82
2023/09/07 10:56:50;;;;;;;5.67;4.30;;;;;;;30.28;36.63;98979.69;6998716;28;20237;-83
2023/09/07 11:00:14;;;;;;;5.67;3.90;;;;;;;31.62;34.69;98975.16;6999778;28;20231;-83
2023/09/07 11:03:36;;;;;;;6.90;4.23;;;;;;;31.28;35.14;98962.25;7000541;28;20203;-83
2023/09/07 11:06:58;;;;;;;7.97;4.03;;;;;;;32.34;34.31;98964.44;7000305;28;20754;-83
2023/09/07 11:10:20;;;;;;;4.23;3.63;;;;;;;33.04;32.73;98917.50;7001063;28;20302;-83
2023/09/07 11:13:43;;;;;;;4.90;4.13;;;;;;;31.63;34.63;98974.00;6996574;28;20345;-82
2023/09/07 11:17:05;;;;;;;4.30;3.90;;;;;;;31.39;35.16;98959.88;7000517;28;20701;-83
2023/09/07 11:20:26;;;;;;;5.53;4.10;;;;;;;32.53;32.97;98968.34;7015809;28;20710;-83
2023/09/07 11:23:49;;;;;;;6.57;4.60;;;;;;;32.13;33.89;98960.84;6998532;28;20292;-83
2023/09/07 11:27:10;;;;;;;4.37;3.93;;;;;;;32.95;32.29;98957.91;6998852;28;20223;-83
2023/09/07 11:30:33;;;;;;;4.33;3.93;;;;;;;32.83;33.20;98944.72;6999379;28;20236;-83
2023/09/07 11:33:57;;;;;;;5.13;3.83;;;;;;;33.26;31.45;98950.53;6992614;28;20205;-83
2023/09/07 11:37:19;;;;;;;4.13;3.73;;;;;;;32.92;32.36;98950.19;6997386;28;20297;-83
2023/09/07 11:40:42;;;;;;;7.73;3.57;;;;;;;33.37;31.59;98946.16;6998185;28;20228;-82
2023/09/07 11:44:04;;;;;;;4.63;3.40;;;;;;;33.06;32.28;98942.28;6974337;28;20267;-82
2023/09/07 11:47:27;;;;;;;4.50;4.10;;;;;;;30.90;35.15;98930.75;6999456;28;20291;-82
2023/09/07 11:50:49;;;;;;;4.13;3.70;;;;;;;33.38;32.31;98925.41;6999968;28;20300;-82
2023/09/07 11:54:10;;;;;;;6.23;3.93;;;;;;;33.64;31.35;98933.41;6993373;28;20232;-82
2023/09/07 11:57:32;;;;;;;5.50;3.80;;;;;;;34.52;29.76;98932.09;6991835;28;20307;-82
2023/09/07 12:00:54;;;;;;;4.00;3.60;;;;;;;34.70;29.23;98924.97;6990650;28;20289;-82
2023/09/07 12:04:17;;;;;;;4.27;3.63;;;;;;;34.79;29.22;98927.66;6996194;28;20214;-82
2023/09/07 12:07:39;;;;;;;4.83;3.50;;;;;;;34.00;30.61;98914.59;7000260;28;20205;-82
2023/09/07 12:11:01;;;;;;;3.90;3.60;;;;;;;33.86;29.62;98865.78;6972398;28;20351;-82
2023/09/07 12:14:22;;;;;;;4.47;4.07;;;;;;;34.02;30.97;98919.81;6985552;28;20371;-82
2023/09/07 12:17:44;;;;;;;4.17;3.77;;;;;;;35.12;28.93;98905.66;6984204;28;20202;-82
2023/09/07 12:21:08;;;;;;;4.70;3.90;;;;;;;34.84;29.38;98925.38;6994971;28;20698;-82
2023/09/07 12:24:29;;;;;;;5.70;3.70;;;;;;;34.16;29.92;98914.63;6993654;28;20288;-82
2023/09/07 12:27:56;;;;;;;3.77;3.47;;;;;;;35.55;28.03;98891.50;6994413;28;20726;-82
2023/09/07 12:31:18;;;;;;;3.97;3.57;;;;;;;35.31;28.03;98914.19;6995165;28;20193;-82
2023/09/07 12:34:39;;;;;;;4.43;3.50;;;;;;;35.22;28.73;98908.72;7003161;28;20333;-82
2023/09/07 12:38:03;;;;;;;4.17;3.77;;;;;;;34.34;30.16;98897.19;6993789;28;20213;-83
2023/09/07 12:41:24;;;;;;;4.07;3.67;;;;;;;34.30;30.14;98901.88;6996067;28;20729;-82
2023/09/07 12:44:46;;;;;;;4.13;3.10;;;;;;;34.30;30.81;98899.06;6997521;28;20269;-82
2023/09/07 12:48:07;;;;;;;6.10;3.70;;;;;;;33.84;30.78;98898.91;6993658;28;20237;-82
2023/09/07 12:51:29;;;;;;;4.47;3.40;;;;;;;34.47;30.17;98895.94;6991144;28;20212;-82
2023/09/07 12:54:52;;;;;;;3.90;3.53;;;;;;;34.74;29.00;98891.44;6995865;28;20221;-82
2023/09/07 12:58:13;;;;;;;8.40;3.90;;;;;;;33.23;31.86;98886.13;6994696;28;20352;-82
2023/09/07 13:01:35;;;;;;;4.13;3.73;;;;;;;33.79;30.40;98885.97;6969710;28;20261;-82
2023/09/07 13:04:56;;;;;;;3.70;3.30;;;;;;;33.02;31.63;98858.31;6973416;28;20362;-82
2023/09/07 13:08:18;;;;;;;4.00;3.60;;;;;;;33.39;31.40;98884.28;6990546;28;20242;-82
2023/09/07 13:11:41;;;;;;;3.60;3.40;;;;;;;33.44;30.77;98881.25;6996175;28;20198;-82
2023/09/07 13:15:03;;;;;;;3.73;3.43;;;;;;;33.72;30.82;98896.91;6995432;28;20361;-82
2023/09/07 13:18:25;;;;;;;6.83;3.80;;;;;;;34.18;30.72;98868.31;6996220;28;20209;-82
2023/09/07 13:21:47;;;;;;;4.13;3.63;;;;;;;34.71;29.99;98883.75;6989349;28;20226;-82
2023/09/07 13:25:09;;;;;;;4.10;3.40;;;;;;;33.99;30.35;98879.38;6995303;28;20585;-82
2023/09/07 13:28:32;;;;;;;3.23;2.93;;;;;;;34.37;29.60;98832.06;7001054;28;20236;-82
2023/09/07 13:31:53;;;;;;;4.37;3.67;;;;;;;34.09;31.05;98861.25;7006836;28;20569;-81
2023/09/07 13:35:15;;;;;;;3.87;3.57;;;;;;;33.88;30.88;98861.47;7023299;28;20224;-81
2023/09/07 13:38:37;;;;;;;5.47;3.70;;;;;;;34.67;29.63;98868.88;7001897;28;20245;-81
2023/09/07 13:41:58;;;;;;;6.37;3.60;;;;;;;34.34;29.62;98830.00;6996088;28;20367;-81
2023/09/07 13:45:22;;;;;;;4.80;3.90;;;;;;;33.35;31.45;98855.41;6984521;28;20309;-81
2023/09/07 13:48:43;;;;;;;4.60;3.60;;;;;;;33.95;30.07;98872.84;6989986;28;20193;-80
2023/09/07 13:52:05;;;;;;;3.93;3.53;;;;;;;33.67;30.35;98871.19;6985449;28;20668;-81
2023/09/07 13:55:27;;;;;;;3.93;3.63;;;;;;;32.98;31.54;98842.63;6984460;28;20260;-81
2023/09/07 13:58:48;;;;;;;3.70;3.40;;;;;;;33.02;31.74;98840.75;6987560;28;20274;-81
2023/09/07 14:02:11;;;;;;;4.17;3.53;;;;;;;34.17;30.39;98866.69;6994903;28;20308;-81
2023/09/07 14:05:33;;;;;;;4.70;3.53;;;;;;;33.49;31.11;98833.50;6998200;28;20237;-81
2023/09/07 14:08:54;;;;;;;4.47;3.40;;;;;;;33.11;32.19;98859.03;6999390;28;20201;-81
2023/09/07 14:12:16;;;;;;;4.87;4.10;;;;;;;33.16;31.84;98861.59;7000186;28;20201;-81
2023/09/07 14:15:37;;;;;;;4.40;3.40;;;;;;;34.37;30.18;98842.47;6999502;28;20690;-82
2023/09/07 14:19:00;;;;;;;4.53;4.10;;;;;;;34.97;29.78;98847.63;7000095;28;20209;-81
2023/09/07 14:22:22;;;;;;;4.73;3.57;;;;;;;34.10;30.32;98860.06;7000250;28;20312;-81
2023/09/07 14:25:44;;;;;;;4.10;3.70;;;;;;;33.84;30.77;98860.53;6999109;28;20351;-81
2023/09/07 14:29:06;;;;;;;4.33;3.43;;;;;;;33.10;31.86;98835.06;6999951;28;20625;-81
2023/09/07 14:32:28;;;;;;;6.27;3.73;;;;;;;33.34;31.11;98863.00;6999602;28;20209;-81
2023/09/07 14:35:53;;;;;;;5.00;4.20;;;;;;;32.70;33.19;98853.66;6998499;28;20230;-81
2023/09/07 14:39:15;;;;;;;3.60;3.30;;;;;;;33.20;31.39;98854.13;6999404;28;20232;-81
2023/09/07 14:42:37;;;;;;;4.03;3.63;;;;;;;33.18;31.91;98855.63;7002093;28;20221;-81
2023/09/07 14:45:59;;;;;;;3.80;3.50;;;;;;;34.15;29.87;98852.25;7002451;28;20313;-81
2023/09/07 14:49:21;;;;;;;5.70;3.50;;;;;;;33.84;29.92;98851.34;7002188;28;20283;-81
2023/09/07 14:52:47;;;;;;;3.93;3.60;;;;;;;32.67;31.64;98845.16;6995743;28;20230;-82
2023/09/07 14:56:13;;;;;;;4.13;3.60;;;;;;;33.19;30.68;98838.53;6993511;28;20238;-81
2023/09/07 14:59:34;;;;;;;5.10;3.77;;;;;;;32.70;30.92;98834.09;6990510;28;20283;-82
2023/09/07 15:02:56;;;;;;;4.00;3.57;;;;;;;33.29;30.26;98840.03;6999280;28;20251;-80
2023/09/07 15:06:18;;;;;;;5.57;3.67;;;;;;;33.14;30.94;98841.56;6998807;28;20328;-81
2023/09/07 15:09:41;;;;;;;3.80;3.50;;;;;;;33.48;30.04;98849.44;7001733;28;20200;-81
2023/09/07 15:13:03;;;;;;;3.77;3.47;;;;;;;33.11;30.29;98842.25;7016280;28;20665;-81
2023/09/07 15:16:24;;;;;;;3.47;3.17;;;;;;;33.23;29.88;98835.81;7012113;28;20331;-82
2023/09/07 15:19:46;;;;;;;3.90;3.50;;;;;;;32.90;30.17;98844.38;6990670;28;20324;-80
2023/09/07 15:23:07;;;;;;;3.93;3.23;;;;;;;33.44;29.11;98856.91;6998712;28;20691;-80
2023/09/07 15:26:40;;;;;;;4.87;3.63;;;;;;;33.55;28.98;98846.06;6988092;28;20225;-80
2023/09/07 15:30:03;;;;;;;3.97;3.57;;;;;;;34.19;28.31;98847.53;6997995;28;20676;-80
2023/09/07 15:33:24;;;;;;;4.83;3.80;;;;;;;33.46;29.76;98845.38;6998134;28;20202;-80
2023/09/07 15:36:46;;;;;;;3.80;3.50;;;;;;;33.29;29.67;98840.88;6998659;28;20267;-80
2023/09/07 15:40:09;;;;;;;4.37;3.40;;;;;;;32.60;30.18;98823.38;7000660;28;20320;-80
2023/09/07 15:43:31;;;;;;;3.90;3.43;;;;;;;32.58;30.20;98847.22;7001151;28;20213;-82
2023/09/07 15:46:53;;;;;;;3.80;3.50;;;;;;;32.55;30.46;98825.59;7000359;28;20827;-81
2023/09/07 15:50:14;;;;;;;15.70;8.00;;;;;;;33.21;30.00;98850.19;6998891;28;20643;-81
2023/09/07 15:53:36;;;;;;;3.77;3.37;;;;;;;33.26;29.83;98846.31;7000655;28;20248;-81